Terminal Aerodrome Forecast
Issued by NWS

Current Version | Previous Version | Graphics & Text | Print | Product List | Glossary On
Versions: 1 2 3 4 5 6 7 8 9 10 11 12 13 14 15
000
FTUS41 KILN 180500
TAFLCK
TAF
KLCK 180538Z 1806/1906 00000KT P6SM BKN250
     FM181200 19005KT P6SM SCT060 OVC150
     FM181800 26008KT P6SM SCT060 OVC150
     FM182300 36007KT P6SM BKN060=

USA.gov is the U.S. government's official web portal to all federal, state and local government web resources and services.